Time;durP1;ratioP1;P1;durP2;ratioP2;P2;SDS_P1;SDS_P2;PMS_P1;PMS_P2;Temp;Humidity;BMP_temperature;BMP_pressure;BME280_temperature;BME280_humidity;BME280_pressure;Samples;Min_cycle;Max_cycle;Signal;HPM_P1;HPM_P2
2022/12/17 13:06:54;;;;;;;6.53;6.07;;;;;;;1.02;74.19;96113.97;4294721;32;20312;-54
2022/12/17 13:09:49;;;;;;;3.57;3.27;;;;;;;0.62;76.17;96108.25;4313653;32;20286;-52
2022/12/17 13:12:34;;;;;;;4.85;4.65;;;;;;;0.60;76.62;96111.06;4336081;32;20134;-52
2022/12/17 13:15:14;;;;;;;4.43;4.23;;;;;;;0.78;76.94;96114.75;4313170;32;20220;-63
2022/12/17 13:18:12;;;;;;;6.40;5.90;;;;;;;0.63;76.63;96113.22;4319766;32;20327;-50
2022/12/17 13:20:37;;;;;;;3.20;3.07;;;;;;;0.69;77.29;96115.00;4322179;32;20353;-54
2022/12/17 13:23:13;;;;;;;4.20;4.03;;;;;;;0.84;76.57;96116.50;4319250;33;20322;-52
2022/12/17 13:25:41;;;;;;;8.07;4.00;;;;;;;0.68;77.73;96112.59;4317772;32;20247;-51
2022/12/17 13:28:29;;;;;;;6.63;5.87;;;;;;;0.76;77.01;96116.78;4326495;32;20298;-54
2022/12/17 13:31:01;;;;;;;9.87;5.10;;;;;;;0.68;77.38;96129.06;4290801;33;20291;-51
2022/12/17 13:33:31;;;;;;;7.77;6.07;;;;;;;0.79;77.38;96129.41;4298016;33;20334;-52
2022/12/17 13:36:50;;;;;;;5.07;4.87;;;;;;;0.73;77.46;96132.84;4317245;32;20308;-53
2022/12/17 13:39:45;;;;;;;3.53;3.23;;;;;;;0.64;78.85;96129.69;4238770;33;20310;-53
2022/12/17 13:42:39;;;;;;;5.97;5.53;;;;;;;0.57;78.58;96142.78;4239391;33;20350;-53
2022/12/17 13:45:13;;;;;;;2.47;2.37;;;;;;;0.81;78.66;96136.00;4223612;33;20405;-53
2022/12/17 13:47:40;;;;;;;6.10;5.77;;;;;;;1.14;76.43;96135.75;4212176;33;20290;-50
2022/12/17 13:50:20;;;;;;;6.73;5.30;;;;;;;0.85;77.11;96139.78;4215582;33;20289;-57
2022/12/17 13:52:45;;;;;;;3.97;3.77;;;;;;;0.80;78.10;96136.22;4259045;33;20284;-55
2022/12/17 13:55:22;;;;;;;5.63;5.33;;;;;;;0.71;78.57;96150.53;4312390;32;20274;-54
2022/12/17 13:57:50;;;;;;;5.67;5.07;;;;;;;0.55;78.50;96149.22;4308445;32;20194;-54
2022/12/17 14:00:29;;;;;;;5.87;5.43;;;;;;;0.66;78.36;96159.78;4303369;32;20337;-54
2022/12/17 14:02:56;;;;;;;5.30;4.70;;;;;;;0.84;78.05;96153.84;4279361;33;20295;-50
2022/12/17 14:05:32;;;;;;;5.73;5.43;;;;;;;0.78;78.48;96169.56;4252156;33;20298;-54
2022/12/17 14:08:16;;;;;;;4.83;4.53;;;;;;;0.88;78.09;96165.47;4302979;33;20286;-51
2022/12/17 14:10:51;;;;;;;4.23;3.93;;;;;;;0.96;78.01;96169.66;4312454;33;20357;-53
2022/12/17 14:13:18;;;;;;;4.50;4.22;;;;;;;1.12;76.63;96166.50;4318245;32;20339;-50
2022/12/17 14:15:49;;;;;;;4.57;4.37;;;;;;;1.00;76.79;96179.47;4280979;32;20234;-53
2022/12/17 14:18:21;;;;;;;6.27;5.80;;;;;;;0.96;76.95;96177.50;4275090;33;20283;-52
2022/12/17 14:20:57;;;;;;;5.87;5.37;;;;;;;0.81;77.68;96182.22;4261944;33;20296;-52
2022/12/17 14:23:34;;;;;;;4.85;4.55;;;;;;;0.84;77.90;96179.16;4295664;33;20541;-53
2022/12/17 14:25:59;;;;;;;7.03;6.45;;;;;;;0.66;77.71;96187.72;4259528;33;20240;-54
2022/12/17 14:28:49;;;;;;;5.53;5.27;;;;;;;0.62;78.71;96189.94;4279258;33;20206;-50
2022/12/17 14:31:32;;;;;;;5.13;4.77;;;;;;;0.82;78.20;96183.81;4273642;33;20214;-52
2022/12/17 14:34:06;;;;;;;4.82;4.35;;;;;;;0.85;77.64;96184.16;4295369;33;20337;-49
2022/12/17 14:36:43;;;;;;;3.53;3.30;;;;;;;0.69;77.46;96197.72;4291565;33;20209;-57
2022/12/17 14:39:42;;;;;;;3.70;3.47;;;;;;;0.69;77.71;96203.75;4305315;33;20298;-54
2022/12/17 14:42:31;;;;;;;3.83;3.57;;;;;;;0.71;77.62;96200.94;4293115;33;20208;-52
2022/12/17 14:45:16;;;;;;;5.18;4.93;;;;;;;0.50;78.05;96212.50;4311209;33;20279;-53
2022/12/17 14:48:14;;;;;;;3.92;3.62;;;;;;;0.50;78.10;96201.25;4301098;32;20212;-54
2022/12/17 14:50:41;;;;;;;4.70;4.40;;;;;;;0.61;77.07;96196.19;4334288;32;20216;-52
2022/12/17 14:53:27;;;;;;;4.62;4.28;;;;;;;0.26;78.76;96210.56;4327751;32;20185;-55
2022/12/17 14:56:01;;;;;;;3.87;3.67;;;;;;;0.72;77.37;96207.75;4322398;32;20244;-53
2022/12/17 14:58:27;;;;;;;4.90;3.62;;;;;;;0.64;77.37;96214.00;4351398;32;20181;-54
2022/12/17 15:01:15;;;;;;;6.10;5.72;;;;;;;0.37;77.94;96215.16;4333233;32;20245;-52
2022/12/17 15:03:48;;;;;;;4.55;4.25;;;;;;;0.17;79.00;96220.44;4319791;32;20215;-54
2022/12/17 15:06:18;;;;;;;3.50;3.37;;;;;;;0.35;78.40;96222.41;4332406;32;20308;-50
2022/12/17 15:08:58;;;;;;;6.40;5.68;;;;;;;0.10;78.77;96229.28;4299285;32;20259;-55
2022/12/17 15:11:28;;;;;;;4.07;3.80;;;;;;;0.34;78.55;96229.41;4305132;33;20198;-50
2022/12/17 15:13:54;;;;;;;6.28;5.78;;;;;;;0.40;78.03;96234.84;4313484;32;20185;-52
2022/12/17 15:16:22;;;;;;;5.55;5.10;;;;;;;0.26;78.42;96228.84;4300349;32;20190;-52
2022/12/17 15:18:48;;;;;;;6.10;5.05;;;;;;;0.36;78.57;96241.47;4289916;33;20259;-52
2022/12/17 15:21:17;;;;;;;10.13;4.32;;;;;;;0.30;78.56;96238.66;4301357;32;20237;-51
2022/12/17 15:23:45;;;;;;;6.20;5.82;;;;;;;0.34;77.95;96241.66;4299800;32;20209;-52
2022/12/17 15:26:13;;;;;;;5.25;4.78;;;;;;;0.33;78.12;96245.28;4321460;32;20193;-54
2022/12/17 15:28:41;;;;;;;3.75;3.55;;;;;;;0.32;78.14;96241.88;4297843;32;20191;-53
2022/12/17 15:31:16;;;;;;;4.35;4.10;;;;;;;0.02;78.59;96239.94;4306817;33;20216;-52
2022/12/17 15:33:42;;;;;;;4.28;4.07;;;;;;;0.29;78.19;96249.31;4312725;32;20213;-55
2022/12/17 15:36:12;;;;;;;4.70;4.30;;;;;;;0.40;77.31;96246.06;4309633;32;20260;-52
2022/12/17 15:38:38;;;;;;;5.78;5.32;;;;;;;0.23;77.88;96248.31;4318306;32;20319;-53
2022/12/17 15:43:09;;;;;;;5.68;5.18;;;;;;;0.28;77.09;96251.09;4326604;32;20299;-50
2022/12/17 15:43:53;;;;;;;5.43;5.12;;;;;;;0.21;78.04;96252.94;4313575;32;20196;-52
2022/12/17 15:46:19;;;;;;;6.90;6.35;;;;;;;0.34;76.99;96254.72;4301086;32;20293;-53
2022/12/17 15:48:46;;;;;;;6.35;4.93;;;;;;;0.57;75.94;96260.25;4304764;32;20211;-53
2022/12/17 15:51:11;;;;;;;4.57;4.37;;;;;;;0.53;76.06;96256.44;4332473;32;20205;-53
2022/12/17 15:53:37;;;;;;;4.10;3.90;;;;;;;0.39;76.61;96262.72;4327384;32;20197;-53
2022/12/17 15:56:06;;;;;;;6.57;6.07;;;;;;;0.29;76.41;96260.53;4308109;32;20186;-56
2022/12/17 15:58:31;;;;;;;5.07;4.78;;;;;;;0.38;76.58;96263.75;4303231;32;20241;-59
2022/12/17 16:00:58;;;;;;;4.50;4.23;;;;;;;0.31;76.76;96253.31;4296605;33;20194;-53
2022/12/17 16:03:26;;;;;;;4.40;4.10;;;;;;;0.04;77.60;96262.19;4320465;32;20221;-54
2022/12/17 16:05:53;;;;;;;5.20;4.80;;;;;;;0.22;76.81;96253.72;4288618;33;20332;-54
2022/12/17 16:08:19;;;;;;;4.20;4.00;;;;;;;-0.01;77.37;96264.63;4318450;32;20285;-48
2022/12/17 16:10:49;;;;;;;3.40;3.20;;;;;;;-0.39;79.09;96267.06;4303968;33;20209;-53
2022/12/17 16:13:16;;;;;;;4.93;4.60;;;;;;;0.02;78.13;96269.41;4312929;32;20212;-52
2022/12/17 16:15:43;;;;;;;4.28;4.07;;;;;;;0.11;77.44;96272.63;4323569;32;20185;-53
2022/12/17 16:18:09;;;;;;;6.30;5.40;;;;;;;-0.12;77.73;96273.87;4316748;33;20190;-51
2022/12/17 16:20:35;;;;;;;4.80;3.70;;;;;;;-0.03;78.14;96272.66;4322983;32;20262;-53
2022/12/17 16:23:00;;;;;;;6.93;4.53;;;;;;;0.08;78.18;96281.66;4329653;33;20215;-55
2022/12/17 16:25:25;;;;;;;5.67;5.47;;;;;;;-0.06;78.73;96267.03;4319762;32;20206;-52
2022/12/17 16:27:51;;;;;;;3.33;3.13;;;;;;;-0.04;78.69;96265.84;4323747;32;20211;-52
2022/12/17 16:30:16;;;;;;;4.60;4.27;;;;;;;-0.11;79.10;96275.47;4328917;32;20216;-51
2022/12/17 16:32:42;;;;;;;5.50;4.70;;;;;;;-0.20;79.56;96268.84;4327922;32;20207;-53
2022/12/17 16:35:07;;;;;;;4.30;3.83;;;;;;;-0.16;80.00;96259.63;4321357;33;20258;-53
2022/12/17 16:37:33;;;;;;;3.80;3.50;;;;;;;-0.09;80.32;96272.66;4325957;32;20194;-51
2022/12/17 16:39:58;;;;;;;6.50;5.90;;;;;;;-0.03;80.39;96264.84;4325799;32;20200;-53
2022/12/17 16:42:23;;;;;;;5.83;5.43;;;;;;;0.20;79.71;96261.78;4321907;33;20194;-51
2022/12/17 16:44:49;;;;;;;4.73;4.43;;;;;;;0.11;79.64;96278.66;4322679;32;20273;-52
2022/12/17 16:47:14;;;;;;;4.77;4.50;;;;;;;-0.01;80.42;96281.09;4324560;32;20233;-55
2022/12/17 16:49:40;;;;;;;4.37;4.03;;;;;;;-0.28;81.43;96276.91;4335894;32;20212;-49
2022/12/17 16:52:05;;;;;;;7.60;4.90;;;;;;;-0.32;81.92;96278.28;4317119;32;20341;-51
2022/12/17 16:54:32;;;;;;;4.47;4.27;;;;;;;-0.13;81.71;96277.47;4333153;32;20247;-50
2022/12/17 16:56:57;;;;;;;4.78;4.35;;;;;;;-0.05;81.58;96284.31;4330517;32;20194;-49
2022/12/17 16:59:23;;;;;;;4.03;3.73;;;;;;;-0.36;82.03;96282.31;4323662;32;20185;-52
2022/12/17 17:01:50;;;;;;;4.67;4.37;;;;;;;-0.31;82.29;96273.87;4326034;32;20403;-53
2022/12/17 17:04:17;;;;;;;3.33;3.12;;;;;;;-0.22;82.41;96276.09;4312305;32;20186;-53
2022/12/17 17:06:52;;;;;;;4.22;4.03;;;;;;;-0.38;83.07;96276.47;4328387;32;20198;-50
2022/12/17 17:09:18;;;;;;;4.82;4.22;;;;;;;-0.19;82.95;96275.66;4326855;32;20193;-52
2022/12/17 17:11:44;;;;;;;4.57;4.28;;;;;;;-0.23;83.06;96273.69;4324877;32;20299;-53
2022/12/17 17:14:09;;;;;;;4.20;4.00;;;;;;;-0.31;83.50;96279.91;4329302;32;20198;-51
2022/12/17 17:16:36;;;;;;;4.37;4.17;;;;;;;-0.16;83.04;96283.09;4324147;32;20201;-54
2022/12/17 17:19:03;;;;;;;4.75;2.67;;;;;;;-0.07;82.85;96284.50;4328802;32;20212;-51
2022/12/17 17:21:33;;;;;;;2.90;2.78;;;;;;;-0.05;82.71;96282.50;4324871;32;20257;-60
2022/12/17 17:24:08;;;;;;;3.05;2.53;;;;;;;-0.28;83.06;96286.53;4328498;32;20236;-50
2022/12/17 17:26:34;;;;;;;3.87;3.25;;;;;;;-0.10;82.93;96297.13;4332173;32;20250;-51
2022/12/17 17:29:00;;;;;;;2.50;2.40;;;;;;;-0.19;82.99;96304.34;4314950;32;20200;-54
2022/12/17 17:31:25;;;;;;;4.17;3.90;;;;;;;-0.07;82.84;96302.75;4328390;33;20186;-53
2022/12/17 17:33:52;;;;;;;3.50;3.33;;;;;;;0.26;82.03;96301.88;4321143;32;20249;-53
2022/12/17 17:36:28;;;;;;;6.00;5.22;;;;;;;0.21;82.15;96312.13;4325913;32;20189;-51
2022/12/17 17:38:55;;;;;;;2.80;2.58;;;;;;;0.03;82.71;96310.16;4324903;32;20224;-51
2022/12/17 17:41:23;;;;;;;1.62;1.58;;;;;;;0.13;82.40;96307.94;4333875;32;20181;-50
2022/12/17 17:43:53;;;;;;;2.25;2.15;;;;;;;0.07;82.84;96302.72;4316198;32;20182;-50
2022/12/17 17:46:18;;;;;;;2.78;2.58;;;;;;;0.22;82.33;96318.94;4310847;32;20373;-47
2022/12/17 17:48:45;;;;;;;3.20;3.03;;;;;;;0.26;82.19;96322.75;4329043;32;20198;-53
2022/12/17 17:51:13;;;;;;;3.33;3.20;;;;;;;0.40;81.51;96313.91;4330329;32;20228;-49
2022/12/17 17:53:40;;;;;;;2.95;2.85;;;;;;;0.47;81.41;96316.50;4322883;32;20206;-51
2022/12/17 17:56:14;;;;;;;3.20;2.92;;;;;;;0.37;81.46;96316.94;4328618;32;20240;-53
2022/12/17 17:58:45;;;;;;;2.90;2.70;;;;;;;0.18;82.19;96318.56;4322269;32;20189;-52
2022/12/17 18:01:13;;;;;;;4.18;3.90;;;;;;;0.05;82.73;96320.37;4328297;32;20232;-51
2022/12/17 18:03:39;;;;;;;6.43;4.35;;;;;;;0.16;82.52;96322.38;4322188;32;20197;-53
2022/12/17 18:06:06;;;;;;;3.53;3.23;;;;;;;0.36;81.90;96323.16;4329714;32;20263;-54
2022/12/17 18:08:33;;;;;;;5.57;5.18;;;;;;;0.39;81.61;96325.34;4324875;32;20208;-49
2022/12/17 18:11:00;;;;;;;4.90;4.60;;;;;;;0.00;82.56;96323.62;4328423;33;20218;-54
2022/12/17 18:16:10;;;;;;;6.25;5.75;;;;;;;0.22;81.84;96324.97;4321041;32;20281;-53
2022/12/17 18:18:36;;;;;;;3.22;2.97;;;;;;;0.03;82.59;96331.00;4327001;32;20185;-52
2022/12/17 18:21:10;;;;;;;4.00;2.60;;;;;;;-0.10;83.17;96329.22;4319601;32;20214;-51
2022/12/17 18:23:35;;;;;;;4.82;4.62;;;;;;;-0.14;82.67;96328.00;4315701;32;20193;-51
2022/12/17 18:26:17;;;;;;;5.60;4.50;;;;;;;-0.23;83.69;96338.84;4325310;32;20216;-52
2022/12/17 18:28:43;;;;;;;4.93;4.53;;;;;;;-0.01;82.44;96333.25;4321345;32;20221;-52
2022/12/17 18:31:25;;;;;;;6.00;5.50;;;;;;;0.06;82.27;96333.22;4320324;32;20229;-53
2022/12/17 18:33:57;;;;;;;3.92;3.60;;;;;;;0.08;82.07;96340.84;4335773;32;20294;-51
2022/12/17 18:36:33;;;;;;;4.03;3.80;;;;;;;-0.01;82.23;96342.87;4319000;33;20214;-52
2022/12/17 18:39:09;;;;;;;3.67;3.37;;;;;;;-0.03;82.77;96345.69;4337476;32;20209;-59
2022/12/17 18:44:19;;;;;;;6.03;3.83;;;;;;;-0.02;81.00;96356.91;4330254;32;22785;-51
2022/12/17 18:46:45;;;;;;;4.37;4.07;;;;;;;-0.05;81.77;96346.88;4331705;32;20236;-51
2022/12/17 18:49:13;;;;;;;4.30;4.07;;;;;;;-0.05;82.05;96347.69;4315573;33;20273;-53
2022/12/17 18:51:41;;;;;;;4.57;4.10;;;;;;;0.05;81.23;96357.69;4312108;33;20198;-53
2022/12/17 18:54:12;;;;;;;4.45;4.15;;;;;;;-0.02;81.06;96359.53;4326723;33;20213;-53
2022/12/17 18:56:37;;;;;;;4.75;4.45;;;;;;;-0.33;82.17;96360.09;4313097;33;20228;-53
2022/12/17 18:59:03;;;;;;;7.90;4.60;;;;;;;-0.23;82.33;96359.72;4307874;33;20191;-54
2022/12/17 19:01:31;;;;;;;3.10;3.00;;;;;;;-0.17;82.53;96359.69;4313559;33;20201;-53
2022/12/17 19:04:01;;;;;;;3.33;3.22;;;;;;;-0.43;82.89;96364.91;4314734;33;20215;-53
2022/12/17 19:06:27;;;;;;;4.32;4.03;;;;;;;-0.64;83.95;96365.06;4316818;33;20198;-54
2022/12/17 19:08:52;;;;;;;6.50;3.90;;;;;;;-0.75;84.62;96371.63;4315772;33;20190;-51
2022/12/17 19:11:20;;;;;;;6.30;3.87;;;;;;;-0.49;83.64;96366.50;4311571;32;20190;-51
2022/12/17 19:13:48;;;;;;;3.90;3.70;;;;;;;-0.36;82.77;96361.28;4314965;33;20190;-53
2022/12/17 19:16:19;;;;;;;6.43;5.07;;;;;;;-0.50;83.58;96372.69;4309220;33;20226;-53
2022/12/17 19:18:50;;;;;;;6.20;4.57;;;;;;;-0.67;83.50;96365.47;4311842;33;20233;-51
2022/12/17 19:21:15;;;;;;;7.20;4.85;;;;;;;-0.70;84.29;96371.84;4316138;33;20185;-51
2022/12/17 19:23:41;;;;;;;5.30;4.90;;;;;;;-0.52;83.90;96364.28;4326184;33;20220;-52
2022/12/17 19:26:10;;;;;;;6.37;5.70;;;;;;;-0.48;83.63;96362.09;4331212;32;20190;-54
2022/12/17 19:28:38;;;;;;;4.20;3.90;;;;;;;-0.87;84.02;96374.00;4317206;32;20198;-53
2022/12/17 19:31:04;;;;;;;5.03;4.72;;;;;;;-0.84;84.44;96372.81;4321166;33;20225;-49
2022/12/17 19:33:29;;;;;;;3.67;3.50;;;;;;;-0.98;84.58;96366.75;4322481;33;20253;-53
2022/12/17 19:35:59;;;;;;;4.23;3.83;;;;;;;-0.87;84.57;96378.41;4324430;33;20196;-55
2022/12/17 19:38:24;;;;;;;6.72;6.20;;;;;;;-0.97;84.35;96373.56;4319329;33;20182;-52
2022/12/17 19:40:51;;;;;;;3.70;3.47;;;;;;;-0.86;84.45;96388.66;4318698;33;20264;-53
2022/12/17 19:43:17;;;;;;;3.58;3.37;;;;;;;-1.12;85.53;96380.72;4317990;33;20186;-54
2022/12/17 19:45:42;;;;;;;2.07;1.97;;;;;;;-0.89;85.05;96381.22;4331646;32;20190;-52
2022/12/17 19:48:07;;;;;;;5.00;4.60;;;;;;;-0.97;85.31;96388.37;4324944;32;20297;-52
2022/12/17 19:50:33;;;;;;;4.50;4.20;;;;;;;-1.21;86.51;96392.28;4347363;32;20193;-49
2022/12/17 19:52:58;;;;;;;4.50;4.10;;;;;;;-1.13;85.75;96395.53;4351600;32;20236;-52
2022/12/17 19:55:23;;;;;;;4.90;4.60;;;;;;;-0.95;85.25;96395.00;4350838;32;20189;-53
2022/12/17 19:57:48;;;;;;;3.17;2.57;;;;;;;-1.01;84.96;96395.78;4342883;32;20266;-52
2022/12/17 20:00:15;;;;;;;3.83;3.50;;;;;;;-1.29;86.05;96400.25;4307555;32;20311;-51
2022/12/17 20:02:41;;;;;;;3.53;3.22;;;;;;;-1.08;85.83;96397.56;4338839;32;20205;-52
2022/12/17 20:05:07;;;;;;;4.57;4.37;;;;;;;-0.89;84.89;96389.03;4340966;32;20244;-51
2022/12/17 20:07:33;;;;;;;4.20;3.90;;;;;;;-0.95;84.48;96397.59;4330910;32;20201;-53
2022/12/17 20:09:59;;;;;;;2.53;2.37;;;;;;;-1.21;84.95;96393.09;4305035;32;20198;-52
2022/12/17 20:12:26;;;;;;;3.97;3.67;;;;;;;-1.33;85.56;96393.81;4312930;33;20194;-53
2022/12/17 20:14:52;;;;;;;2.78;2.40;;;;;;;-1.29;85.61;96389.84;4327123;32;20411;-52
2022/12/17 20:17:19;;;;;;;2.22;2.05;;;;;;;-1.28;85.21;96391.47;4326727;32;20268;-52
2022/12/17 20:19:44;;;;;;;5.90;4.07;;;;;;;-1.19;85.31;96401.50;4335569;32;20233;-53
2022/12/17 20:22:09;;;;;;;3.67;3.37;;;;;;;-1.13;85.11;96394.72;4307883;32;20251;-52
2022/12/17 20:24:38;;;;;;;5.30;4.90;;;;;;;-1.11;85.18;96398.75;4329187;32;20189;-49
2022/12/17 20:27:05;;;;;;;4.60;4.15;;;;;;;-1.45;85.67;96396.94;4350267;32;20243;-51
2022/12/17 20:29:31;;;;;;;4.03;3.72;;;;;;;-1.61;86.47;96397.25;4345915;32;20219;-52
2022/12/17 20:34:54;;;;;;;2.70;2.50;;;;;;;-1.49;86.65;96406.16;4336599;32;20315;-54
2022/12/17 20:37:20;;;;;;;4.27;3.90;;;;;;;-1.21;85.84;96413.91;4322867;32;20304;-53
2022/12/17 20:39:47;;;;;;;4.28;3.10;;;;;;;-0.97;84.29;96410.03;4338669;32;20208;-52
2022/12/17 20:42:16;;;;;;;2.70;2.47;;;;;;;-0.93;84.29;96410.44;4337987;32;20198;-53
2022/12/17 20:44:42;;;;;;;3.22;3.03;;;;;;;-1.16;84.57;96411.53;4327916;32;20185;-54
2022/12/17 20:47:09;;;;;;;3.43;3.23;;;;;;;-1.04;84.40;96415.19;4338796;32;20253;-53
2022/12/17 20:49:34;;;;;;;2.45;2.35;;;;;;;-1.12;84.71;96422.38;4339581;32;20244;-53
2022/12/17 20:52:00;;;;;;;3.93;3.73;;;;;;;-1.00;84.18;96415.59;4343574;32;20196;-51
2022/12/17 20:54:25;;;;;;;2.73;2.63;;;;;;;-1.01;84.30;96415.78;4343864;32;20193;-52
2022/12/17 20:56:52;;;;;;;5.13;1.80;;;;;;;-1.08;84.83;96415.78;4322853;32;20193;-50
2022/12/17 20:59:19;;;;;;;2.95;2.78;;;;;;;-1.25;84.98;96411.91;4327625;32;20193;-54
2022/12/17 21:01:46;;;;;;;3.80;3.45;;;;;;;-1.08;84.90;96410.59;4335587;32;20235;-53
2022/12/17 21:04:14;;;;;;;5.10;4.57;;;;;;;-1.12;85.10;96415.38;4329195;32;20194;-51
2022/12/17 21:06:45;;;;;;;5.32;4.93;;;;;;;-1.08;84.83;96416.59;4339010;32;20194;-54
2022/12/17 21:09:11;;;;;;;5.10;4.00;;;;;;;-1.06;84.98;96412.00;4323507;32;20260;-51
2022/12/17 21:11:38;;;;;;;5.62;5.12;;;;;;;-1.04;84.94;96414.41;4338782;32;20235;-50
2022/12/17 21:14:10;;;;;;;7.43;4.07;;;;;;;-1.01;85.05;96411.41;4336640;32;20234;-50
2022/12/17 21:16:36;;;;;;;4.05;3.72;;;;;;;-1.04;85.53;96414.41;4327612;32;20372;-53
2022/12/17 21:19:03;;;;;;;2.65;2.55;;;;;;;-0.94;84.90;96407.03;4340121;32;20185;-49
2022/12/17 21:21:31;;;;;;;3.67;3.37;;;;;;;-0.97;84.54;96410.03;4334541;32;20209;-52
2022/12/17 21:23:58;;;;;;;1.90;1.90;;;;;;;-0.91;84.51;96417.06;4337378;32;20221;-51
2022/12/17 21:26:25;;;;;;;4.65;3.92;;;;;;;-0.95;84.99;96415.03;4341045;32;20243;-54
2022/12/17 21:28:52;;;;;;;2.40;2.20;;;;;;;-0.83;84.65;96419.47;4336871;32;20253;-54
2022/12/17 21:31:17;;;;;;;2.30;2.22;;;;;;;-0.88;84.49;96408.88;4344568;32;20212;-51
2022/12/17 21:33:44;;;;;;;4.40;4.10;;;;;;;-0.86;84.71;96411.28;4331709;32;20206;-52
2022/12/17 21:36:09;;;;;;;2.65;2.55;;;;;;;-0.84;84.39;96409.28;4319297;32;20244;-54
2022/12/17 21:38:35;;;;;;;5.03;4.47;;;;;;;-0.91;85.09;96418.87;4344270;32;20232;-53
2022/12/17 21:41:10;;;;;;;2.97;2.60;;;;;;;-0.80;84.41;96408.69;4329438;32;20193;-53
2022/12/17 21:43:36;;;;;;;2.08;1.98;;;;;;;-0.90;84.59;96416.06;4342578;32;20276;-41
2022/12/17 21:46:03;;;;;;;4.10;3.90;;;;;;;3.04;100.00;96395.78;4329087;32;20216;-40
2022/12/17 21:48:29;;;;;;;4.57;4.23;;;;;;;4.55;100.00;96395.44;4334601;32;20208;-40
2022/12/17 21:50:54;;;;;;;4.33;4.03;;;;;;;5.94;100.00;96395.34;4325822;32;20282;-39
2022/12/17 21:53:20;;;;;;;3.20;2.90;;;;;;;5.51;99.08;96396.66;4340613;32;20318;-40
2022/12/17 21:55:47;;;;;;;6.10;5.57;;;;;;;6.06;89.72;96394.25;4344567;32;20206;-54
2022/12/17 21:58:14;;;;;;;4.97;4.68;;;;;;;5.23;65.96;96409.75;4324306;32;20237;-54
2022/12/17 22:00:41;;;;;;;5.17;4.87;;;;;;;3.37;64.33;96411.91;4333542;32;20267;-54
2022/12/17 22:03:07;;;;;;;5.47;3.50;;;;;;;2.76;67.24;96417.22;4330314;32;20285;-51
2022/12/17 22:05:35;;;;;;;6.57;4.20;;;;;;;1.80;70.19;96424.66;4332654;32;20307;-51
2022/12/17 22:08:00;;;;;;;5.17;4.80;;;;;;;1.37;73.16;96426.06;4347885;32;20242;-53
2022/12/17 22:10:26;;;;;;;4.47;4.17;;;;;;;0.90;75.45;96431.66;4345169;32;20282;-53
2022/12/17 22:15:37;;;;;;;2.83;2.73;;;;;;;0.42;78.29;96438.94;4345919;32;20349;-54
2022/12/17 22:18:03;;;;;;;5.23;4.77;;;;;;;0.22;79.08;96431.12;4331255;32;20352;-53
2022/12/17 22:20:28;;;;;;;5.87;3.63;;;;;;;-0.29;80.54;96428.28;4326708;32;20273;-53
2022/12/17 22:22:53;;;;;;;4.60;4.30;;;;;;;-0.02;80.40;96420.31;4322413;33;20186;-53
2022/12/17 22:25:20;;;;;;;4.60;4.00;;;;;;;-0.36;80.86;96429.06;4337805;32;20286;-56
2022/12/17 22:27:46;;;;;;;3.90;3.70;;;;;;;-0.68;83.33;96431.56;4345490;32;20331;-54
2022/12/17 22:33:01;;;;;;;2.72;2.53;;;;;;;-0.70;83.89;96421.34;4315950;32;20204;-56
2022/12/17 22:35:34;;;;;;;5.03;4.62;;;;;;;-0.50;83.20;96419.59;4328109;32;20251;-53
2022/12/17 22:38:00;;;;;;;3.80;3.45;;;;;;;-0.63;83.30;96423.97;4339893;32;20234;-63
2022/12/17 22:40:27;;;;;;;3.65;3.45;;;;;;;-0.57;83.30;96436.22;4326003;33;20237;-54
2022/12/17 22:45:38;;;;;;;2.33;2.22;;;;;;;-0.61;83.67;96448.81;4341580;32;20193;-54
2022/12/17 22:48:04;;;;;;;2.65;2.45;;;;;;;-1.15;85.50;96448.78;4336262;32;20189;-52
2022/12/17 22:50:29;;;;;;;3.05;2.85;;;;;;;-1.11;85.61;96450.81;4348742;32;20203;-58
2022/12/17 22:52:55;;;;;;;2.37;2.27;;;;;;;-0.85;84.39;96449.34;4346778;32;20224;-54
2022/12/17 22:55:20;;;;;;;2.77;2.67;;;;;;;-1.15;84.69;96456.59;4342417;32;20204;-51
2022/12/17 22:57:45;;;;;;;5.03;4.73;;;;;;;-1.15;85.36;96453.97;4340485;32;20253;-55
2022/12/17 23:00:22;;;;;;;4.33;4.03;;;;;;;-0.98;85.02;96446.66;4326233;32;20232;-54
2022/12/17 23:02:51;;;;;;;1.95;1.33;;;;;;;-0.94;84.94;96440.87;4339546;32;20193;-54
2022/12/17 23:05:16;;;;;;;4.97;4.68;;;;;;;-1.36;86.17;96441.84;4338169;32;20272;-52
2022/12/17 23:07:41;;;;;;;3.37;3.17;;;;;;;-1.34;86.61;96449.47;4338081;32;20194;-55
2022/12/17 23:10:07;;;;;;;3.13;2.93;;;;;;;-1.38;86.48;96454.25;4333470;32;20197;-51
2022/12/17 23:12:50;;;;;;;3.03;2.80;;;;;;;-1.37;86.44;96447.25;4318019;33;20189;-55
2022/12/17 23:15:27;;;;;;;3.05;2.75;;;;;;;-1.46;86.17;96442.19;4328910;32;20241;-42
2022/12/17 23:17:55;;;;;;;2.70;2.60;;;;;;;-0.99;93.31;96448.47;4337052;32;20189;-42
2022/12/17 23:20:21;;;;;;;3.53;3.30;;;;;;;-0.07;97.16;96446.16;4319056;32;20294;-56
2022/12/17 23:22:47;;;;;;;4.35;4.05;;;;;;;-0.17;92.26;96442.31;4323749;32;20194;-54
2022/12/17 23:25:13;;;;;;;4.77;4.57;;;;;;;-0.39;83.10;96444.28;4339484;32;20213;-55
2022/12/17 23:27:43;;;;;;;2.70;2.60;;;;;;;-1.10;83.00;96455.03;4343128;32;20189;-54
2022/12/17 23:30:10;;;;;;;3.40;3.20;;;;;;;-1.31;84.17;96449.09;4329655;32;20219;-56
2022/12/17 23:32:36;;;;;;;3.37;3.17;;;;;;;-1.55;85.58;96451.13;4343344;32;20256;-53
2022/12/17 23:35:02;;;;;;;5.13;3.57;;;;;;;-1.73;86.21;96461.19;4337364;32;20185;-53
2022/12/17 23:37:27;;;;;;;3.03;2.85;;;;;;;-2.26;87.96;96452.09;4341568;32;20185;-55
2022/12/17 23:39:52;;;;;;;9.77;4.37;;;;;;;-2.16;88.88;96443.03;4322882;33;20200;-53
2022/12/17 23:42:18;;;;;;;2.40;2.23;;;;;;;-2.21;89.36;96447.97;4335448;32;20269;-52
2022/12/17 23:44:43;;;;;;;2.87;1.70;;;;;;;-2.00;88.73;96443.75;4335656;32;20201;-51
2022/12/17 23:47:08;;;;;;;3.60;2.63;;;;;;;-2.11;89.04;96447.69;4340175;32;20204;-52
2022/12/17 23:49:34;;;;;;;2.70;2.60;;;;;;;-2.18;89.63;96452.00;4336280;32;20195;-54
2022/12/17 23:51:59;;;;;;;2.83;2.63;;;;;;;-2.36;90.43;96457.63;4339315;32;20204;-53
2022/12/17 23:54:24;;;;;;;2.07;1.93;;;;;;;-2.23;89.99;96455.16;4329847;33;20253;-53
2022/12/17 23:56:50;;;;;;;3.13;2.90;;;;;;;-2.31;90.33;96452.69;4341375;32;20237;-50
2022/12/17 23:59:15;;;;;;;5.13;2.47;;;;;;;-2.25;90.82;96456.31;4336524;33;20295;-50
